Time;durP1;ratioP1;P1;durP2;ratioP2;P2;SDS_P1;SDS_P2;PMS_P1;PMS_P2;Temp;Humidity;BMP_temperature;BMP_pressure;BME280_temperature;BME280_humidity;BME280_pressure;Samples;Min_cycle;Max_cycle;Signal;HPM_P1;HPM_P2
2021/03/29 00:02:03;;;;;;;15.30;6.60;;;8.10;99.90;;;;;;4913765;29;20189;-63
2021/03/29 00:04:30;;;;;;;14.73;6.33;;;8.20;99.90;;;;;;4912832;29;20205;-65
2021/03/29 00:07:01;;;;;;;11.47;5.80;;;8.20;99.90;;;;;;4913393;29;20249;-64
2021/03/29 00:09:31;;;;;;;10.13;5.20;;;8.20;99.90;;;;;;4914708;29;20289;-63
2021/03/29 00:12:01;;;;;;;12.93;5.67;;;8.30;99.90;;;;;;4913494;29;20297;-62
2021/03/29 00:14:29;;;;;;;10.03;5.33;;;8.40;99.90;;;;;;4919740;29;20763;-63
2021/03/29 00:16:57;;;;;;;12.60;5.80;;;8.40;99.90;;;;;;4915007;29;20182;-63
2021/03/29 00:19:27;;;;;;;14.90;5.53;;;8.40;99.90;;;;;;4911864;29;20304;-63
2021/03/29 00:21:55;;;;;;;12.00;4.93;;;8.40;99.90;;;;;;4916025;29;20289;-63
2021/03/29 00:24:23;;;;;;;9.93;4.80;;;8.40;99.90;;;;;;4914626;29;20226;-65
2021/03/29 00:26:52;;;;;;;13.73;5.83;;;8.50;99.90;;;;;;4915742;29;20242;-64
2021/03/29 00:29:19;;;;;;;11.47;4.67;;;8.50;99.90;;;;;;4914707;29;20237;-63
2021/03/29 00:31:47;;;;;;;11.70;4.90;;;8.60;99.90;;;;;;4927229;29;20185;-63
2021/03/29 00:34:16;;;;;;;13.47;4.30;;;8.60;99.90;;;;;;4917889;29;20193;-63
2021/03/29 00:36:44;;;;;;;10.70;4.63;;;8.70;99.90;;;;;;4914511;29;20296;-64
2021/03/29 00:39:12;;;;;;;8.70;4.53;;;8.70;99.90;;;;;;4915763;29;20284;-64
2021/03/29 00:41:40;;;;;;;9.17;3.90;;;8.90;99.90;;;;;;4913826;29;20200;-64
2021/03/29 00:44:10;;;;;;;8.67;4.10;;;8.90;99.90;;;;;;4927011;29;20657;-63
2021/03/29 00:46:38;;;;;;;9.73;4.67;;;8.90;99.90;;;;;;4919075;29;20245;-64
2021/03/29 00:49:07;;;;;;;9.67;4.40;;;8.90;99.90;;;;;;4912102;29;20200;-63
2021/03/29 00:51:36;;;;;;;11.10;4.10;;;8.90;99.90;;;;;;4915038;29;20316;-63
2021/03/29 00:54:06;;;;;;;7.50;4.57;;;8.90;99.90;;;;;;4905236;29;20202;-63
2021/03/29 00:56:35;;;;;;;8.87;4.43;;;8.90;99.90;;;;;;4917511;29;20200;-64
2021/03/29 00:59:04;;;;;;;12.93;3.90;;;8.90;99.90;;;;;;4912417;29;20201;-63
2021/03/29 01:01:39;;;;;;;8.50;3.93;;;8.90;99.90;;;;;;4917436;29;20711;-63
2021/03/29 01:04:07;;;;;;;8.60;4.10;;;9.10;99.90;;;;;;4908454;29;20193;-63
2021/03/29 01:06:39;;;;;;;8.07;4.40;;;9.10;99.90;;;;;;4913017;29;20637;-63
2021/03/29 01:09:09;;;;;;;7.63;4.00;;;9.00;99.90;;;;;;4914262;29;20225;-64
2021/03/29 01:11:40;;;;;;;8.60;4.10;;;9.00;99.90;;;;;;4913102;29;20877;-63
2021/03/29 01:14:13;;;;;;;9.77;4.37;;;9.00;99.90;;;;;;4910468;29;20197;-64
2021/03/29 01:16:45;;;;;;;9.93;4.20;;;9.00;99.90;;;;;;4911686;29;20201;-63
2021/03/29 01:19:17;;;;;;;12.13;4.40;;;8.90;99.90;;;;;;4913163;29;20198;-63
2021/03/29 01:21:56;;;;;;;9.47;4.17;;;8.90;99.90;;;;;;4912333;29;20284;-64
2021/03/29 01:24:31;;;;;;;8.90;4.17;;;8.90;99.90;;;;;;4912876;29;20245;-64
2021/03/29 01:27:00;;;;;;;7.97;4.40;;;8.80;99.90;;;;;;4911398;29;20719;-63
2021/03/29 01:29:31;;;;;;;7.37;4.27;;;8.80;99.90;;;;;;4912117;29;20239;-63
2021/03/29 01:32:00;;;;;;;10.00;4.13;;;8.90;99.90;;;;;;4921419;29;20293;-63
2021/03/29 01:34:30;;;;;;;7.23;3.90;;;8.90;99.90;;;;;;4912008;29;20744;-67
2021/03/29 01:36:59;;;;;;;9.50;4.20;;;8.80;99.90;;;;;;4933198;29;20190;-65
2021/03/29 01:39:28;;;;;;;8.90;4.00;;;8.80;99.90;;;;;;4916457;29;20582;-65
2021/03/29 01:41:56;;;;;;;8.83;3.87;;;8.80;99.90;;;;;;4915236;29;20206;-63
2021/03/29 01:44:25;;;;;;;6.23;3.70;;;8.80;99.90;;;;;;4914934;29;20189;-63
2021/03/29 01:46:54;;;;;;;8.50;3.53;;;8.80;99.90;;;;;;4912615;29;20308;-64
2021/03/29 01:49:22;;;;;;;5.77;3.67;;;8.80;99.90;;;;;;4924452;29;20649;-64
2021/03/29 01:51:51;;;;;;;6.33;3.90;;;8.80;99.90;;;;;;4911635;29;20288;-64
2021/03/29 01:54:19;;;;;;;7.37;3.83;;;8.70;99.90;;;;;;4908837;29;20202;-64
2021/03/29 01:56:47;;;;;;;6.33;3.93;;;8.70;99.90;;;;;;4927417;29;20193;-64
2021/03/29 01:59:15;;;;;;;12.80;4.33;;;8.70;99.90;;;;;;4913776;29;20190;-64
2021/03/29 02:01:43;;;;;;;8.63;4.03;;;8.70;99.90;;;;;;4915936;29;20305;-63
2021/03/29 02:04:11;;;;;;;7.37;3.83;;;8.70;99.90;;;;;;4912205;29;20238;-63
2021/03/29 02:06:39;;;;;;;5.30;3.93;;;8.70;99.90;;;;;;4913084;29;20221;-64
2021/03/29 02:09:09;;;;;;;11.10;3.90;;;8.70;99.90;;;;;;4918102;29;20197;-63
2021/03/29 02:11:38;;;;;;;11.00;4.00;;;8.70;99.90;;;;;;4915936;29;20284;-64
2021/03/29 02:14:06;;;;;;;6.87;3.63;;;8.80;99.90;;;;;;4915967;29;20560;-63
2021/03/29 02:16:34;;;;;;;4.20;3.73;;;8.80;99.90;;;;;;4914960;29;20197;-63
2021/03/29 02:19:06;;;;;;;5.53;3.50;;;8.80;99.90;;;;;;4908891;29;20257;-64
2021/03/29 02:21:36;;;;;;;9.77;3.77;;;8.80;99.90;;;;;;4911934;29;20212;-63
2021/03/29 02:24:06;;;;;;;8.77;4.13;;;8.80;99.90;;;;;;4912639;29;20561;-63
2021/03/29 02:26:37;;;;;;;10.03;4.10;;;8.80;99.90;;;;;;4916497;29;20300;-64
2021/03/29 02:29:06;;;;;;;8.40;4.03;;;8.70;99.90;;;;;;4910720;29;20225;-63
2021/03/29 02:31:34;;;;;;;10.23;4.07;;;8.70;99.90;;;;;;4912350;29;20284;-63
2021/03/29 02:34:04;;;;;;;6.80;3.90;;;8.70;99.90;;;;;;4911052;29;20649;-63
2021/03/29 02:36:32;;;;;;;7.53;3.57;;;8.60;99.90;;;;;;4911865;29;20195;-63
2021/03/29 02:38:59;;;;;;;7.07;3.83;;;8.60;99.90;;;;;;4911302;29;20744;-64
2021/03/29 02:41:29;;;;;;;13.83;4.07;;;8.60;99.90;;;;;;4914112;29;20860;-64
2021/03/29 02:43:58;;;;;;;7.53;3.70;;;8.70;99.90;;;;;;4913556;29;20661;-63
2021/03/29 02:46:27;;;;;;;12.03;3.83;;;8.60;99.90;;;;;;4913203;29;20250;-63
2021/03/29 02:48:56;;;;;;;4.20;3.57;;;8.60;99.90;;;;;;4913984;29;20193;-64
2021/03/29 02:51:26;;;;;;;6.23;3.77;;;8.60;99.90;;;;;;4911118;29;20293;-64
2021/03/29 02:53:58;;;;;;;9.47;3.83;;;8.50;99.90;;;;;;4912582;29;20209;-64
2021/03/29 02:56:29;;;;;;;6.33;3.83;;;8.50;99.90;;;;;;4912089;29;20561;-64
2021/03/29 02:59:00;;;;;;;9.57;4.13;;;8.50;99.90;;;;;;4911520;29;20332;-63
2021/03/29 03:01:31;;;;;;;8.77;3.77;;;8.40;99.90;;;;;;4912379;29;20608;-63
2021/03/29 03:04:00;;;;;;;10.87;4.10;;;8.50;99.90;;;;;;4914758;29;20215;-64
2021/03/29 03:06:30;;;;;;;12.90;4.80;;;8.40;99.90;;;;;;4917892;29;20217;-63
2021/03/29 03:09:00;;;;;;;9.00;4.10;;;8.40;99.90;;;;;;4912051;29;20268;-64
2021/03/29 03:11:28;;;;;;;11.10;5.40;;;8.40;99.90;;;;;;4911335;29;20197;-64
2021/03/29 03:13:56;;;;;;;9.70;4.03;;;8.40;99.90;;;;;;4910622;29;20336;-64
2021/03/29 03:16:23;;;;;;;11.03;4.07;;;8.30;99.90;;;;;;4915944;29;20323;-64
2021/03/29 03:18:51;;;;;;;14.23;4.17;;;8.30;99.90;;;;;;4910281;29;20205;-63
2021/03/29 03:21:19;;;;;;;10.83;4.10;;;8.30;99.90;;;;;;4911577;29;20200;-64
2021/03/29 03:23:56;;;;;;;8.67;3.80;;;8.20;99.90;;;;;;4914713;29;20292;-64
2021/03/29 03:26:24;;;;;;;9.53;4.27;;;8.20;99.90;;;;;;4913265;29;20276;-64
2021/03/29 03:28:52;;;;;;;8.33;4.27;;;8.20;99.90;;;;;;4909981;29;20225;-63
2021/03/29 03:31:20;;;;;;;7.80;3.83;;;8.10;99.90;;;;;;4912557;29;20221;-64
2021/03/29 03:33:48;;;;;;;6.73;4.00;;;8.20;99.90;;;;;;4911961;29;20197;-63
2021/03/29 03:36:18;;;;;;;9.97;4.53;;;8.20;99.90;;;;;;4910897;29;20280;-63
2021/03/29 03:38:48;;;;;;;11.20;3.80;;;8.20;99.90;;;;;;4911527;29;20229;-64
2021/03/29 03:41:20;;;;;;;7.60;4.03;;;8.20;99.90;;;;;;4918249;29;20736;-63
2021/03/29 03:43:50;;;;;;;7.53;4.03;;;8.20;99.90;;;;;;4913271;29;20249;-63
2021/03/29 03:46:21;;;;;;;8.27;4.00;;;8.20;99.90;;;;;;4929690;29;20328;-63
2021/03/29 03:48:49;;;;;;;6.60;3.70;;;8.20;99.90;;;;;;4914923;29;20221;-63
2021/03/29 03:51:17;;;;;;;9.13;4.30;;;8.10;99.90;;;;;;4915353;29;20198;-65
2021/03/29 03:53:47;;;;;;;8.30;4.20;;;8.10;99.90;;;;;;4918182;29;20225;-64
2021/03/29 03:56:14;;;;;;;6.77;3.87;;;8.10;99.90;;;;;;4923063;29;20219;-63
2021/03/29 03:58:43;;;;;;;13.23;4.30;;;8.10;99.90;;;;;;4914152;29;20232;-63
2021/03/29 04:01:10;;;;;;;10.77;4.57;;;8.10;99.90;;;;;;4915791;29;20252;-64
2021/03/29 04:03:38;;;;;;;10.87;4.20;;;8.10;99.90;;;;;;4917669;29;20253;-63
2021/03/29 04:06:06;;;;;;;10.03;4.10;;;8.00;99.90;;;;;;4914772;29;20201;-63
2021/03/29 04:08:42;;;;;;;8.50;4.10;;;8.00;99.90;;;;;;4915325;29;20211;-64
2021/03/29 04:11:09;;;;;;;8.67;4.20;;;7.90;99.90;;;;;;4906849;29;20288;-63
2021/03/29 04:13:36;;;;;;;8.90;3.97;;;7.90;99.90;;;;;;4915241;29;20209;-63
2021/03/29 04:16:10;;;;;;;10.83;3.93;;;7.90;99.90;;;;;;4914195;29;20201;-64
2021/03/29 04:18:37;;;;;;;9.17;4.10;;;7.80;99.90;;;;;;4914076;29;20213;-64
2021/03/29 04:21:06;;;;;;;14.57;4.83;;;7.80;99.90;;;;;;4913853;29;20253;-64
2021/03/29 04:23:34;;;;;;;9.17;5.07;;;7.70;99.90;;;;;;4920076;29;20234;-64
2021/03/29 04:26:05;;;;;;;6.73;4.00;;;7.70;99.90;;;;;;4896498;29;20629;-64
2021/03/29 04:28:32;;;;;;;7.87;4.70;;;7.70;99.90;;;;;;4914058;29;20247;-63
2021/03/29 04:30:59;;;;;;;7.10;4.07;;;7.70;99.90;;;;;;4913745;29;20260;-64
2021/03/29 04:33:27;;;;;;;12.77;4.80;;;7.60;99.90;;;;;;4916914;29;20283;-64
2021/03/29 04:35:55;;;;;;;8.47;4.00;;;7.60;99.90;;;;;;4913959;29;20244;-64
2021/03/29 04:38:23;;;;;;;8.50;4.37;;;7.60;99.90;;;;;;4917204;29;20190;-64
2021/03/29 04:40:50;;;;;;;10.70;4.57;;;7.60;99.90;;;;;;4910392;29;20201;-63
2021/03/29 04:43:17;;;;;;;7.87;4.13;;;7.60;99.90;;;;;;4917299;29;20198;-64
2021/03/29 04:45:46;;;;;;;6.53;4.07;;;7.60;99.90;;;;;;4912376;29;20672;-63
2021/03/29 04:48:14;;;;;;;8.57;4.37;;;7.60;99.90;;;;;;4912487;29;20300;-63
2021/03/29 04:50:42;;;;;;;10.37;4.43;;;7.50;99.90;;;;;;4912233;29;20205;-63
2021/03/29 04:53:09;;;;;;;12.67;5.20;;;7.50;99.90;;;;;;4913584;29;20300;-63
2021/03/29 04:55:37;;;;;;;8.90;4.27;;;7.50;99.90;;;;;;4914013;29;20202;-63
2021/03/29 04:58:04;;;;;;;7.03;4.77;;;7.50;99.90;;;;;;4914924;29;20186;-64
2021/03/29 05:00:32;;;;;;;6.43;4.30;;;7.50;99.90;;;;;;4912780;29;20205;-63
2021/03/29 05:02:59;;;;;;;8.63;4.13;;;7.50;99.90;;;;;;4915121;29;20234;-64
2021/03/29 05:05:26;;;;;;;13.47;4.30;;;7.50;99.90;;;;;;4913045;29;20194;-64
2021/03/29 05:07:54;;;;;;;10.30;4.67;;;7.50;99.90;;;;;;4917233;29;20307;-64
2021/03/29 05:10:22;;;;;;;5.93;4.03;;;7.40;99.90;;;;;;4918711;29;20193;-63
2021/03/29 05:12:54;;;;;;;10.07;4.40;;;7.50;99.90;;;;;;4909731;29;20681;-63
2021/03/29 05:15:21;;;;;;;6.97;4.00;;;7.50;99.90;;;;;;4912422;29;20209;-63
2021/03/29 05:17:49;;;;;;;5.73;4.00;;;7.50;99.90;;;;;;4918165;29;20249;-63
2021/03/29 05:20:16;;;;;;;9.93;4.27;;;7.50;99.90;;;;;;4911493;29;20294;-63
2021/03/29 05:22:43;;;;;;;8.63;4.47;;;7.50;99.90;;;;;;4912162;29;20205;-63
2021/03/29 05:25:13;;;;;;;6.00;4.13;;;7.50;99.90;;;;;;4913567;29;20194;-63
2021/03/29 05:27:40;;;;;;;9.97;4.20;;;7.50;99.90;;;;;;4911535;29;20269;-63
2021/03/29 05:30:09;;;;;;;8.70;4.63;;;7.40;99.90;;;;;;4911006;29;20272;-63
2021/03/29 05:32:36;;;;;;;13.50;4.70;;;7.40;99.90;;;;;;4913718;29;20205;-61
2021/03/29 05:35:04;;;;;;;11.97;4.80;;;7.40;99.90;;;;;;4908652;29;20285;-63
2021/03/29 05:37:31;;;;;;;8.87;4.60;;;7.40;99.90;;;;;;4918182;29;20279;-63
2021/03/29 05:40:00;;;;;;;7.47;3.77;;;7.40;99.90;;;;;;4912607;29;20672;-63
2021/03/29 05:42:30;;;;;;;13.17;6.47;;;7.40;99.90;;;;;;4912481;29;20284;-64
2021/03/29 05:45:05;;;;;;;14.40;4.93;;;7.40;99.90;;;;;;4913496;29;20665;-63
2021/03/29 05:47:33;;;;;;;10.27;4.63;;;7.40;99.90;;;;;;4911325;29;20209;-64
2021/03/29 05:50:03;;;;;;;10.83;4.40;;;7.40;99.90;;;;;;4920423;29;20292;-63
2021/03/29 05:52:30;;;;;;;15.40;4.17;;;7.40;99.90;;;;;;4912007;29;20298;-64
2021/03/29 05:54:58;;;;;;;10.37;5.10;;;7.40;99.90;;;;;;4909573;29;20287;-65
2021/03/29 05:57:26;;;;;;;10.80;4.57;;;7.40;99.90;;;;;;4917322;29;20288;-64
2021/03/29 05:59:54;;;;;;;6.83;4.40;;;7.50;99.90;;;;;;4908219;29;20808;-63
2021/03/29 06:02:28;;;;;;;9.40;4.37;;;7.60;99.90;;;;;;4912115;29;20193;-63
2021/03/29 06:04:55;;;;;;;11.53;4.40;;;7.70;99.90;;;;;;4910660;29;20190;-63
2021/03/29 06:07:24;;;;;;;5.50;4.43;;;7.80;99.90;;;;;;4915254;29;20576;-63
2021/03/29 06:09:53;;;;;;;9.07;4.63;;;7.80;99.90;;;;;;4921457;29;20240;-63
2021/03/29 06:12:22;;;;;;;8.63;4.37;;;7.90;99.90;;;;;;4914759;29;20185;-63
2021/03/29 06:15:00;;;;;;;9.93;4.13;;;8.00;99.90;;;;;;4912885;29;20233;-65
2021/03/29 06:17:28;;;;;;;13.20;4.60;;;8.10;99.90;;;;;;4911540;29;20189;-64
2021/03/29 06:19:58;;;;;;;7.73;4.00;;;8.10;99.90;;;;;;4913854;29;20302;-64
2021/03/29 06:22:28;;;;;;;6.90;4.40;;;8.20;99.90;;;;;;4915381;29;20197;-64
2021/03/29 06:25:10;;;;;;;10.03;4.73;;;8.40;99.90;;;;;;4909441;29;20292;-64
2021/03/29 06:27:44;;;;;;;7.73;4.17;;;8.50;99.90;;;;;;4911475;29;20221;-63
2021/03/29 06:30:18;;;;;;;14.33;4.77;;;8.70;99.90;;;;;;4910288;29;20744;-63
2021/03/29 06:33:06;;;;;;;9.70;3.80;;;8.80;99.90;;;;;;4917031;29;20265;-64
2021/03/29 06:35:38;;;;;;;9.10;4.03;;;9.10;99.90;;;;;;4917710;29;20601;-64
2021/03/29 06:38:10;;;;;;;7.27;4.20;;;9.30;99.90;;;;;;4924422;29;20228;-63
2021/03/29 06:40:40;;;;;;;9.43;4.37;;;9.50;99.90;;;;;;4916174;29;20693;-64
2021/03/29 06:43:24;;;;;;;6.90;4.10;;;9.60;99.90;;;;;;4923345;29;20896;-63
2021/03/29 06:45:54;;;;;;;9.93;3.70;;;9.80;99.90;;;;;;4911718;29;20205;-63
2021/03/29 06:48:25;;;;;;;8.03;4.00;;;10.20;99.90;;;;;;4929473;29;20253;-63
2021/03/29 06:51:11;;;;;;;8.43;4.03;;;10.70;99.90;;;;;;4918258;29;20816;-63
2021/03/29 06:53:40;;;;;;;6.70;3.80;;;11.00;99.90;;;;;;4916320;29;20236;-64
2021/03/29 06:56:29;;;;;;;10.57;4.53;;;11.20;99.90;;;;;;4915591;29;20573;-64
2021/03/29 06:58:58;;;;;;;11.63;4.43;;;11.40;99.90;;;;;;4911704;29;20286;-64
2021/03/29 07:01:32;;;;;;;12.03;4.63;;;11.50;99.90;;;;;;4915016;29;20292;-64
2021/03/29 07:04:00;;;;;;;5.67;4.13;;;11.60;99.90;;;;;;4911030;29;20269;-64
2021/03/29 07:06:29;;;;;;;6.70;4.20;;;11.80;99.90;;;;;;4911191;29;20748;-64
2021/03/29 07:09:05;;;;;;;8.27;3.97;;;12.30;99.90;;;;;;4909321;29;20197;-64
2021/03/29 07:11:33;;;;;;;6.70;3.80;;;12.50;99.90;;;;;;4921130;29;20196;-64
2021/03/29 07:14:02;;;;;;;9.43;4.10;;;12.60;99.90;;;;;;4912285;29;20256;-64
2021/03/29 07:16:32;;;;;;;7.40;3.90;;;12.80;99.90;;;;;;4920228;29;20197;-64
2021/03/29 07:19:01;;;;;;;8.33;4.20;;;12.80;99.90;;;;;;4914407;29;20736;-63
2021/03/29 07:21:29;;;;;;;12.47;4.40;;;13.00;99.90;;;;;;4911428;29;20288;-64
2021/03/29 07:24:02;;;;;;;10.37;4.03;;;13.20;99.90;;;;;;4920208;29;20629;-64
2021/03/29 07:26:36;;;;;;;9.57;3.80;;;13.50;99.90;;;;;;4916041;29;20202;-64
2021/03/29 07:29:20;;;;;;;8.67;3.57;;;13.30;99.90;;;;;;4908078;29;20229;-64
2021/03/29 07:31:51;;;;;;;9.83;4.20;;;13.50;99.90;;;;;;4912061;29;20197;-64
2021/03/29 07:34:19;;;;;;;6.97;4.03;;;13.60;99.90;;;;;;4912770;29;20217;-64
2021/03/29 07:36:48;;;;;;;7.67;3.93;;;13.60;99.90;;;;;;4910795;29;20185;-64
2021/03/29 07:39:21;;;;;;;10.90;3.97;;;13.70;99.90;;;;;;4913766;29;20194;-64
2021/03/29 07:42:28;;;;;;;6.90;3.93;;;13.90;99.90;;;;;;4911490;29;20201;-65
2021/03/29 07:44:57;;;;;;;8.47;3.43;;;14.00;99.90;;;;;;4910578;29;20989;-64
2021/03/29 07:47:45;;;;;;;6.67;3.67;;;14.10;99.90;;;;;;4923702;29;20689;-65
2021/03/29 07:50:18;;;;;;;7.17;4.00;;;14.30;99.90;;;;;;4917535;29;20220;-65
2021/03/29 07:52:50;;;;;;;9.47;4.23;;;14.90;99.90;;;;;;4908026;29;20249;-64
2021/03/29 07:55:24;;;;;;;5.50;3.50;;;15.30;99.90;;;;;;4908684;29;20194;-64
2021/03/29 07:58:03;;;;;;;6.70;3.50;;;15.60;99.90;;;;;;4912063;29;20712;-64
2021/03/29 08:00:56;;;;;;;8.03;3.70;;;15.70;99.90;;;;;;4910468;29;20285;-64
2021/03/29 08:03:57;;;;;;;10.70;3.77;;;15.90;99.90;;;;;;4910988;29;20201;-65
2021/03/29 08:06:48;;;;;;;7.27;3.90;;;16.30;99.90;;;;;;4864435;29;20213;-65
2021/03/29 08:09:21;;;;;;;7.23;3.40;;;16.90;99.90;;;;;;4922148;29;20189;-65
2021/03/29 08:12:04;;;;;;;5.67;3.37;;;17.50;99.90;;;;;;4913123;29;20206;-67
2021/03/29 08:14:44;;;;;;;8.97;3.47;;;18.00;99.90;;;;;;4906787;29;20726;-63
2021/03/29 08:17:53;;;;;;;10.23;3.43;;;18.10;99.90;;;;;;4910762;29;20201;-66
2021/03/29 08:20:35;;;;;;;9.30;3.57;;;18.00;99.90;;;;;;4909234;29;20214;-63
2021/03/29 08:23:35;;;;;;;5.10;3.50;;;18.00;99.90;;;;;;4905530;29;20199;-64
2021/03/29 08:26:13;;;;;;;5.57;3.33;;;18.30;99.90;;;;;;4914387;29;20288;-65
2021/03/29 08:29:21;;;;;;;8.27;3.53;;;18.60;99.90;;;;;;4939203;29;21416;-65
2021/03/29 08:32:16;;;;;;;7.47;3.90;;;18.60;99.90;;;;;;4920156;29;20201;-65
2021/03/29 08:34:58;;;;;;;8.77;3.50;;;18.50;99.90;;;;;;4921992;29;20201;-64
2021/03/29 08:37:32;;;;;;;9.00;3.13;;;18.20;99.90;;;;;;4919532;29;20208;-64
2021/03/29 08:40:01;;;;;;;7.53;3.50;;;18.70;99.90;;;;;;4921080;29;20296;-66
2021/03/29 08:42:32;;;;;;;5.83;3.00;;;19.40;99.90;;;;;;4918437;29;20280;-65
2021/03/29 08:45:01;;;;;;;4.63;3.10;;;19.50;99.90;;;;;;4914292;29;20206;-65
2021/03/29 08:47:29;;;;;;;5.10;3.37;;;19.60;99.90;;;;;;4926006;29;20204;-65
2021/03/29 08:49:58;;;;;;;8.80;3.50;;;19.30;99.90;;;;;;4928674;29;20320;-65
2021/03/29 08:52:38;;;;;;;6.83;3.50;;;19.50;99.90;;;;;;4910569;29;20213;-65
2021/03/29 08:55:07;;;;;;;4.10;2.97;;;19.90;99.90;;;;;;4911754;29;20293;-65
2021/03/29 08:57:35;;;;;;;5.17;3.33;;;20.00;99.90;;;;;;4911925;29;20233;-65
2021/03/29 09:00:11;;;;;;;6.30;3.20;;;20.40;99.90;;;;;;4913231;29;20221;-65
2021/03/29 09:02:40;;;;;;;4.13;3.03;;;20.60;99.90;;;;;;4916055;29;20204;-66
2021/03/29 09:05:09;;;;;;;6.07;2.87;;;20.80;99.90;;;;;;4923765;29;20198;-66
2021/03/29 09:07:41;;;;;;;7.90;3.10;;;20.70;99.90;;;;;;4916688;29;20700;-67
2021/03/29 09:10:22;;;;;;;3.77;3.00;;;20.80;99.90;;;;;;4930324;29;20198;-66
2021/03/29 09:12:55;;;;;;;4.23;3.07;;;20.80;99.90;;;;;;4922379;29;20298;-65
2021/03/29 09:15:24;;;;;;;6.40;3.20;;;21.00;99.90;;;;;;4914039;29;20203;-65
2021/03/29 09:17:59;;;;;;;3.93;2.70;;;21.00;99.90;;;;;;4921692;29;20254;-65
2021/03/29 09:20:29;;;;;;;5.70;2.97;;;21.10;99.90;;;;;;4916917;29;20194;-65
2021/03/29 09:22:56;;;;;;;3.97;2.60;;;20.90;99.90;;;;;;4914410;29;20212;-65
2021/03/29 09:25:29;;;;;;;6.57;2.93;;;20.70;99.90;;;;;;4912942;29;20253;-65
2021/03/29 09:28:14;;;;;;;7.37;2.90;;;21.10;99.90;;;;;;4912950;29;20221;-65
2021/03/29 09:30:42;;;;;;;4.13;3.10;;;21.30;99.90;;;;;;4912960;29;20241;-65
2021/03/29 09:33:10;;;;;;;6.67;3.50;;;21.20;99.90;;;;;;4912408;29;20282;-65
2021/03/29 09:35:37;;;;;;;6.40;3.10;;;21.20;99.90;;;;;;4912320;29;20302;-64
2021/03/29 09:38:05;;;;;;;4.10;2.73;;;21.20;99.90;;;;;;4913732;29;20326;-66
2021/03/29 09:40:37;;;;;;;6.60;3.00;;;21.50;99.90;;;;;;4915745;29;20306;-65
2021/03/29 09:43:06;;;;;;;4.27;3.00;;;21.80;99.90;;;;;;4914145;29;20605;-65
2021/03/29 09:45:35;;;;;;;5.70;3.33;;;22.20;99.90;;;;;;4912730;29;20295;-64
2021/03/29 09:48:04;;;;;;;4.73;2.93;;;22.20;99.90;;;;;;4913933;29;20333;-65
2021/03/29 09:50:34;;;;;;;2.83;2.60;;;22.40;99.90;;;;;;4911709;29;20202;-64
2021/03/29 09:53:13;;;;;;;9.17;3.20;;;22.60;99.90;;;;;;4914194;29;20320;-64
2021/03/29 09:55:43;;;;;;;7.23;3.17;;;22.70;99.90;;;;;;4919081;29;20235;-65
2021/03/29 09:58:22;;;;;;;4.90;2.93;;;22.70;99.90;;;;;;4905055;29;20193;-65
2021/03/29 10:00:51;;;;;;;4.77;2.53;;;22.90;99.90;;;;;;4924052;29;20203;-64
2021/03/29 10:03:20;;;;;;;4.60;2.90;;;22.60;98.90;;;;;;4912762;29;20232;-63
2021/03/29 10:05:49;;;;;;;4.37;2.80;;;23.10;98.30;;;;;;4911751;29;20204;-64
2021/03/29 10:08:28;;;;;;;6.87;3.47;;;23.50;97.40;;;;;;4917195;29;20249;-63
2021/03/29 10:11:04;;;;;;;4.67;3.00;;;23.70;98.90;;;;;;4912921;29;20203;-64
2021/03/29 10:13:37;;;;;;;8.10;3.30;;;23.80;98.00;;;;;;4904928;29;20197;-64
2021/03/29 10:16:22;;;;;;;5.80;3.07;;;23.90;98.50;;;;;;4911610;29;20229;-64
2021/03/29 10:19:13;;;;;;;4.90;2.90;;;23.80;96.30;;;;;;4910791;29;20204;-64
2021/03/29 10:22:04;;;;;;;3.67;2.90;;;23.50;97.40;;;;;;4910674;29;20967;-64
2021/03/29 10:24:33;;;;;;;3.23;2.43;;;23.40;97.10;;;;;;4912234;29;20201;-63
2021/03/29 10:27:04;;;;;;;6.00;3.40;;;23.60;96.50;;;;;;4918529;29;20193;-64
2021/03/29 10:29:37;;;;;;;7.83;3.60;;;23.60;97.90;;;;;;4910703;29;20229;-64
2021/03/29 10:32:06;;;;;;;3.83;3.10;;;23.60;97.40;;;;;;4922668;29;20182;-64
2021/03/29 10:34:37;;;;;;;7.17;3.50;;;23.80;97.70;;;;;;4909823;29;20280;-64
2021/03/29 10:37:17;;;;;;;9.00;3.50;;;23.60;96.70;;;;;;4928335;29;20679;-63
2021/03/29 10:39:44;;;;;;;9.30;3.80;;;23.40;97.10;;;;;;4912035;29;20287;-63
2021/03/29 10:42:13;;;;;;;7.00;3.53;;;23.60;97.30;;;;;;4912227;29;20216;-63
2021/03/29 10:44:41;;;;;;;7.93;4.10;;;23.60;97.60;;;;;;4909930;29;20237;-63
2021/03/29 10:47:08;;;;;;;7.83;3.43;;;23.50;97.20;;;;;;4916461;29;20205;-63
2021/03/29 10:49:37;;;;;;;3.83;2.90;;;23.30;96.80;;;;;;4908329;29;20291;-63
2021/03/29 10:52:04;;;;;;;5.50;2.90;;;23.40;94.80;;;;;;4910245;29;20212;-63
2021/03/29 10:54:32;;;;;;;6.13;3.23;;;23.30;93.30;;;;;;4930848;29;20248;-63
2021/03/29 10:57:00;;;;;;;6.87;3.50;;;23.60;97.60;;;;;;4911783;29;20374;-63
2021/03/29 10:59:28;;;;;;;5.63;3.10;;;24.20;94.90;;;;;;4910970;29;20309;-63
2021/03/29 11:01:56;;;;;;;5.17;3.17;;;24.10;93.90;;;;;;4908704;29;20658;-63
2021/03/29 11:04:23;;;;;;;5.17;3.20;;;24.30;95.60;;;;;;4914427;29;20198;-63
2021/03/29 11:06:50;;;;;;;6.70;3.27;;;24.20;95.10;;;;;;4913194;29;20202;-63
2021/03/29 11:09:18;;;;;;;5.93;3.20;;;24.10;95.80;;;;;;4908809;29;20269;-64
2021/03/29 11:11:45;;;;;;;6.77;2.90;;;24.30;95.00;;;;;;4908949;29;20280;-63
2021/03/29 11:14:13;;;;;;;7.20;2.80;;;24.00;92.10;;;;;;4912890;29;20601;-64
2021/03/29 11:16:51;;;;;;;4.13;2.60;;;23.80;91.80;;;;;;4909270;29;20253;-63
2021/03/29 11:19:18;;;;;;;5.07;2.43;;;24.30;92.40;;;;;;4928818;29;20186;-63
2021/03/29 11:21:47;;;;;;;3.60;2.63;;;24.90;92.10;;;;;;4911069;29;20186;-63
2021/03/29 11:24:18;;;;;;;7.75;3.10;;;25.20;92.60;;;;;;4914259;29;20536;-63
2021/03/29 11:26:45;;;;;;;5.77;2.80;;;25.40;91.70;;;;;;4907507;29;20304;-63
2021/03/29 11:29:13;;;;;;;4.55;2.85;;;25.00;91.80;;;;;;4910401;29;20245;-63
2021/03/29 11:31:42;;;;;;;4.17;2.80;;;25.20;90.80;;;;;;4909179;29;20281;-62
2021/03/29 11:34:12;;;;;;;2.73;2.53;;;24.90;91.10;;;;;;4910738;29;20784;-63
2021/03/29 11:36:41;;;;;;;4.93;3.07;;;24.30;90.20;;;;;;4911695;29;20252;-63
2021/03/29 11:39:10;;;;;;;4.47;2.67;;;23.60;92.10;;;;;;4915021;29;20185;-62
2021/03/29 11:41:38;;;;;;;6.60;2.83;;;23.40;92.30;;;;;;4911863;29;20210;-63
2021/03/29 11:44:06;;;;;;;5.43;2.87;;;23.50;93.50;;;;;;4911473;29;20198;-63
2021/03/29 11:46:34;;;;;;;2.90;2.63;;;23.50;92.80;;;;;;4911554;29;20285;-63
2021/03/29 11:49:03;;;;;;;4.00;2.83;;;23.60;92.00;;;;;;4911911;29;20227;-63
2021/03/29 11:51:32;;;;;;;5.23;3.20;;;23.50;92.40;;;;;;4911013;29;20215;-63
2021/03/29 11:54:00;;;;;;;3.97;2.87;;;23.60;91.70;;;;;;4911577;29;20194;-63
2021/03/29 11:56:27;;;;;;;7.47;3.17;;;23.80;92.30;;;;;;4913841;29;20315;-62
2021/03/29 11:58:55;;;;;;;3.10;2.90;;;23.80;90.90;;;;;;4915761;29;20249;-63
2021/03/29 12:01:33;;;;;;;3.67;3.20;;;23.70;92.40;;;;;;4920166;29;20298;-62
2021/03/29 12:04:04;;;;;;;5.83;3.10;;;23.80;93.00;;;;;;4915739;29;20214;-62
2021/03/29 12:06:38;;;;;;;6.17;3.30;;;23.60;92.70;;;;;;4917018;29;20762;-66
2021/03/29 12:09:14;;;;;;;4.57;3.47;;;23.50;92.10;;;;;;4922643;29;20273;-63
2021/03/29 12:14:29;;;;;;;7.97;4.13;;;23.30;92.50;;;;;;4915447;29;20260;-64
2021/03/29 12:16:57;;;;;;;5.50;3.33;;;23.30;92.50;;;;;;4916723;29;20637;-63
2021/03/29 12:19:25;;;;;;;5.17;3.30;;;22.90;93.30;;;;;;4914750;29;20289;-64
2021/03/29 12:21:57;;;;;;;5.17;3.10;;;22.70;92.00;;;;;;4912078;29;20564;-62
2021/03/29 12:24:28;;;;;;;5.40;3.30;;;22.60;93.10;;;;;;4915169;29;20606;-62
2021/03/29 12:26:59;;;;;;;8.77;3.77;;;22.60;93.10;;;;;;4912275;29;20257;-63
2021/03/29 12:29:36;;;;;;;5.10;3.90;;;22.60;93.10;;;;;;4919585;29;20269;-62
2021/03/29 12:32:06;;;;;;;5.23;3.87;;;22.80;95.70;;;;;;4913806;29;20189;-64
2021/03/29 12:34:34;;;;;;;8.20;4.07;;;22.70;93.90;;;;;;4914063;29;20205;-63
2021/03/29 12:37:04;;;;;;;4.27;3.57;;;22.20;94.70;;;;;;4914447;29;20211;-63
2021/03/29 12:39:34;;;;;;;8.97;4.30;;;22.50;95.20;;;;;;4911752;29;21724;-65
2021/03/29 12:42:03;;;;;;;5.17;3.50;;;22.70;95.50;;;;;;4917954;29;20204;-62
2021/03/29 12:44:33;;;;;;;3.63;3.30;;;22.60;93.20;;;;;;4912813;29;20572;-63
2021/03/29 12:47:05;;;;;;;4.90;3.93;;;22.50;93.00;;;;;;4919366;29;20198;-63
2021/03/29 12:49:33;;;;;;;6.17;4.27;;;22.30;93.90;;;;;;4913108;29;20308;-63
2021/03/29 12:52:03;;;;;;;6.30;4.60;;;22.30;94.20;;;;;;4913415;29;20245;-63
2021/03/29 12:54:34;;;;;;;7.83;3.90;;;22.10;94.70;;;;;;4914195;29;20253;-63
2021/03/29 12:57:03;;;;;;;7.33;4.00;;;21.90;96.40;;;;;;4921150;29;20201;-63
2021/03/29 12:59:31;;;;;;;4.40;3.87;;;21.90;95.10;;;;;;4915300;29;20217;-63
2021/03/29 13:02:00;;;;;;;4.20;3.80;;;21.90;94.70;;;;;;4930788;29;20192;-63
2021/03/29 13:04:30;;;;;;;7.17;4.13;;;21.80;94.20;;;;;;4918222;29;20229;-63
2021/03/29 13:07:06;;;;;;;7.97;4.43;;;22.00;94.70;;;;;;4916324;29;20193;-64
2021/03/29 13:09:41;;;;;;;9.13;4.57;;;22.00;94.70;;;;;;4932308;29;20647;-63
2021/03/29 13:12:10;;;;;;;7.70;4.07;;;21.80;95.50;;;;;;4915073;29;20225;-63
2021/03/29 13:15:01;;;;;;;9.87;4.50;;;21.50;93.60;;;;;;4928607;29;20291;-63